Time;durP1;ratioP1;P1;durP2;ratioP2;P2;SDS_P1;SDS_P2;PMS_P1;PMS_P2;Temp;Humidity;BMP_temperature;BMP_pressure;BME280_temperature;BME280_humidity;BME280_pressure;Samples;Min_cycle;Max_cycle;Signal;HPM_P1;HPM_P2
2021/10/05 00:01:09;;;;;;;2.00;1.10;;;12.90;74.90;;;;;;5011307;28;20014;-78
2021/10/05 00:03:35;;;;;;;1.13;0.90;;;12.80;74.90;;;;;;5011520;28;20022;-78
2021/10/05 00:06:01;;;;;;;2.40;0.90;;;12.80;74.90;;;;;;5016491;28;20055;-79
2021/10/05 00:08:27;;;;;;;1.40;0.98;;;12.90;74.90;;;;;;5030138;28;20049;-78
2021/10/05 00:10:53;;;;;;;3.70;1.00;;;12.80;74.90;;;;;;5023237;28;20761;-78
2021/10/05 00:13:19;;;;;;;1.77;1.00;;;12.80;75.00;;;;;;5031105;28;20037;-78
2021/10/05 00:15:44;;;;;;;1.73;0.82;;;12.80;75.00;;;;;;5011571;28;20109;-79
2021/10/05 00:18:13;;;;;;;0.90;0.75;;;12.80;74.90;;;;;;5022761;28;20114;-78
2021/10/05 00:20:38;;;;;;;1.83;0.93;;;12.80;74.90;;;;;;5025078;28;20033;-78
2021/10/05 00:23:04;;;;;;;1.15;0.90;;;12.80;75.00;;;;;;5011987;28;20034;-79
2021/10/05 00:25:29;;;;;;;3.33;1.00;;;12.80;75.00;;;;;;5014687;28;20084;-78
2021/10/05 00:27:55;;;;;;;1.08;0.88;;;12.80;75.00;;;;;;5009252;28;20040;-77
2021/10/05 00:30:20;;;;;;;0.90;0.70;;;12.80;75.00;;;;;;5010498;28;20034;-78
2021/10/05 00:32:46;;;;;;;1.38;0.98;;;12.80;75.60;;;;;;5010493;28;20022;-78
2021/10/05 00:35:11;;;;;;;1.20;0.95;;;12.80;75.00;;;;;;5009630;28;20038;-79
2021/10/05 00:37:37;;;;;;;1.38;0.90;;;12.80;75.00;;;;;;5010085;28;20064;-77
2021/10/05 00:40:04;;;;;;;2.83;0.82;;;12.80;75.20;;;;;;5010534;28;20036;-77
2021/10/05 00:42:30;;;;;;;1.60;1.00;;;12.80;75.20;;;;;;5010529;28;20041;-78
2021/10/05 00:44:55;;;;;;;1.92;1.10;;;12.80;75.30;;;;;;5010340;28;20034;-78
2021/10/05 00:47:22;;;;;;;2.55;0.98;;;12.70;75.30;;;;;;5010003;28;20038;-77
2021/10/05 00:49:48;;;;;;;1.98;1.10;;;12.70;75.30;;;;;;5010257;28;20029;-78
2021/10/05 00:52:16;;;;;;;1.92;1.23;;;12.70;75.40;;;;;;5010773;28;20033;-78
2021/10/05 00:54:42;;;;;;;2.05;1.00;;;12.70;75.30;;;;;;5009991;28;20021;-78
2021/10/05 00:57:10;;;;;;;1.35;0.95;;;12.70;75.50;;;;;;5009618;28;20033;-78
2021/10/05 00:59:36;;;;;;;2.70;1.20;;;12.70;75.60;;;;;;5010331;28;20113;-78
2021/10/05 01:02:08;;;;;;;3.30;1.30;;;12.70;75.50;;;;;;5010238;28;20133;-78
2021/10/05 01:04:33;;;;;;;2.45;1.33;;;12.60;75.60;;;;;;4999638;28;20048;-79
2021/10/05 01:07:05;;;;;;;2.78;1.27;;;12.60;75.70;;;;;;5009997;28;20376;-78
2021/10/05 01:09:32;;;;;;;3.22;1.10;;;12.60;75.80;;;;;;5010086;28;20454;-78
2021/10/05 01:11:58;;;;;;;1.63;1.15;;;12.60;75.80;;;;;;5009874;28;20018;-78
2021/10/05 01:14:24;;;;;;;2.38;1.23;;;12.60;75.90;;;;;;5010141;28;20121;-78
2021/10/05 01:16:51;;;;;;;1.65;0.90;;;12.50;75.90;;;;;;5009843;28;20030;-78
2021/10/05 01:19:17;;;;;;;1.63;0.88;;;12.60;76.00;;;;;;5010110;28;20059;-77
2021/10/05 01:21:43;;;;;;;1.30;1.10;;;12.50;75.80;;;;;;5009225;28;20038;-78
2021/10/05 01:24:13;;;;;;;1.73;1.10;;;12.60;75.80;;;;;;5009572;28;20036;-78
2021/10/05 01:26:39;;;;;;;2.15;1.08;;;12.60;75.80;;;;;;5009308;28;20034;-78
2021/10/05 01:29:06;;;;;;;1.70;1.30;;;12.60;75.90;;;;;;5009725;28;20025;-78
2021/10/05 01:31:37;;;;;;;0.82;0.80;;;12.60;76.00;;;;;;5009445;28;20026;-77
2021/10/05 01:34:03;;;;;;;1.77;0.93;;;12.50;75.90;;;;;;5009948;28;20185;-77
2021/10/05 01:36:29;;;;;;;2.33;1.23;;;12.50;75.90;;;;;;5009259;28;20022;-78
2021/10/05 01:38:55;;;;;;;1.63;1.10;;;12.50;76.10;;;;;;5009424;28;20049;-78
2021/10/05 01:41:20;;;;;;;1.10;1.00;;;12.40;76.30;;;;;;5008252;28;20086;-77
2021/10/05 01:43:46;;;;;;;2.30;1.00;;;12.40;76.30;;;;;;5008929;28;20373;-78
2021/10/05 01:46:13;;;;;;;2.97;1.30;;;12.40;76.40;;;;;;5008389;28;20040;-78
2021/10/05 01:48:43;;;;;;;3.22;1.30;;;12.40;76.70;;;;;;5008069;28;20048;-78
2021/10/05 01:51:11;;;;;;;2.55;1.23;;;12.40;76.70;;;;;;5008990;28;20491;-77
2021/10/05 01:53:37;;;;;;;2.53;1.08;;;12.40;76.80;;;;;;5008937;28;20034;-77
2021/10/05 01:56:05;;;;;;;1.70;1.00;;;12.40;76.80;;;;;;5008346;28;20121;-78
2021/10/05 01:58:30;;;;;;;1.45;0.93;;;12.40;76.80;;;;;;5008759;28;20030;-78
2021/10/05 02:00:56;;;;;;;2.50;1.10;;;12.40;76.70;;;;;;5008521;28;20472;-77
2021/10/05 02:03:22;;;;;;;1.60;0.98;;;12.40;76.80;;;;;;5008130;28;20061;-78
2021/10/05 02:05:47;;;;;;;3.45;1.45;;;12.40;76.70;;;;;;5024923;28;20015;-78
2021/10/05 02:08:16;;;;;;;2.03;1.10;;;12.30;77.60;;;;;;5005500;28;20084;-78
2021/10/05 02:10:42;;;;;;;2.13;1.27;;;12.30;77.00;;;;;;5006813;28;20032;-79
2021/10/05 02:13:08;;;;;;;0.80;0.80;;;12.30;77.00;;;;;;5009220;28;20048;-78
2021/10/05 02:15:35;;;;;;;1.75;1.10;;;12.30;77.00;;;;;;5009258;28;20488;-78
2021/10/05 02:18:04;;;;;;;2.75;1.00;;;12.30;77.20;;;;;;5007175;28;20030;-78
2021/10/05 02:20:30;;;;;;;2.47;1.20;;;12.30;77.30;;;;;;5008633;28;20383;-78
2021/10/05 02:22:56;;;;;;;1.58;1.08;;;12.20;77.40;;;;;;5009015;28;20117;-78
2021/10/05 02:25:21;;;;;;;1.88;1.00;;;12.20;77.50;;;;;;5008868;28;20026;-77
2021/10/05 02:27:47;;;;;;;1.50;1.00;;;12.20;77.50;;;;;;5008598;28;20026;-79
2021/10/05 02:30:13;;;;;;;1.98;1.10;;;12.20;77.50;;;;;;5008884;28;20475;-77
2021/10/05 02:32:41;;;;;;;3.20;0.90;;;12.20;77.80;;;;;;5008637;28;20036;-78
2021/10/05 02:35:07;;;;;;;2.28;1.00;;;12.20;77.70;;;;;;5009050;28;20038;-78
2021/10/05 02:37:33;;;;;;;2.25;0.90;;;12.30;77.70;;;;;;5008292;28;20026;-77
2021/10/05 02:40:01;;;;;;;1.52;1.00;;;12.30;77.70;;;;;;5008847;28;20030;-78
2021/10/05 02:42:27;;;;;;;2.30;1.10;;;12.30;77.70;;;;;;5008601;28;20071;-78
2021/10/05 02:44:53;;;;;;;1.27;0.90;;;12.30;77.80;;;;;;5008830;28;20030;-77
2021/10/05 02:47:20;;;;;;;0.98;0.88;;;12.30;77.70;;;;;;5008331;28;20055;-79
2021/10/05 02:49:45;;;;;;;1.02;0.80;;;12.30;77.70;;;;;;5008383;28;20033;-78
2021/10/05 02:52:12;;;;;;;2.03;0.85;;;12.30;77.70;;;;;;5008456;28;20022;-78
2021/10/05 02:54:38;;;;;;;1.92;1.30;;;12.30;77.80;;;;;;5008398;28;20071;-78
2021/10/05 02:57:04;;;;;;;2.65;1.20;;;12.30;77.80;;;;;;5008106;28;20026;-78
2021/10/05 02:59:30;;;;;;;1.55;0.93;;;12.20;77.90;;;;;;5014023;28;20162;-78
2021/10/05 03:01:55;;;;;;;1.58;1.05;;;12.20;78.00;;;;;;5018392;28;20072;-78
2021/10/05 03:04:21;;;;;;;1.48;1.20;;;12.20;78.10;;;;;;5014990;28;20028;-78
2021/10/05 03:06:46;;;;;;;1.60;1.30;;;12.20;78.20;;;;;;5014116;28;20036;-78
2021/10/05 03:09:12;;;;;;;2.33;1.30;;;12.10;78.50;;;;;;5014954;28;20022;-78
2021/10/05 03:11:38;;;;;;;1.30;1.10;;;12.10;78.50;;;;;;5015137;28;20472;-78
2021/10/05 03:14:03;;;;;;;1.05;0.90;;;12.10;78.50;;;;;;5014690;28;20042;-78
2021/10/05 03:16:29;;;;;;;2.13;1.10;;;12.10;78.50;;;;;;5014573;28;20026;-77
2021/10/05 03:18:54;;;;;;;1.45;1.10;;;12.10;78.60;;;;;;5014210;28;20045;-77
2021/10/05 03:21:20;;;;;;;1.77;1.10;;;12.10;78.60;;;;;;5014974;28;20419;-78
2021/10/05 03:23:46;;;;;;;1.35;1.10;;;12.10;78.70;;;;;;5014329;28;20037;-77
2021/10/05 03:26:11;;;;;;;1.75;1.17;;;12.10;78.60;;;;;;5014955;28;20468;-78
2021/10/05 03:28:37;;;;;;;2.17;1.33;;;12.10;78.70;;;;;;5014011;28;20090;-78
2021/10/05 03:31:03;;;;;;;1.70;1.30;;;12.10;78.80;;;;;;5014878;28;20022;-79
2021/10/05 03:33:28;;;;;;;1.27;1.00;;;12.10;78.90;;;;;;5014338;28;20098;-78
2021/10/05 03:35:54;;;;;;;3.25;1.60;;;12.00;79.00;;;;;;5014386;28;20091;-77
2021/10/05 03:38:19;;;;;;;2.67;1.42;;;12.00;79.30;;;;;;5013933;28;20026;-78
2021/10/05 03:40:45;;;;;;;1.75;1.35;;;12.00;79.30;;;;;;5014621;28;20037;-77
2021/10/05 03:43:10;;;;;;;2.72;1.55;;;12.00;79.30;;;;;;5014376;28;20486;-78
2021/10/05 03:45:36;;;;;;;2.03;1.60;;;12.00;79.20;;;;;;5014321;28;20541;-77
2021/10/05 03:48:01;;;;;;;2.38;1.60;;;12.00;79.20;;;;;;5013826;28;20022;-78
2021/10/05 03:50:27;;;;;;;3.22;1.98;;;11.90;79.20;;;;;;5014751;28;20112;-78
2021/10/05 03:52:52;;;;;;;2.45;1.98;;;11.90;79.30;;;;;;5013548;28;20026;-78
2021/10/05 03:55:18;;;;;;;2.63;1.77;;;11.90;79.80;;;;;;5013825;28;20062;-78
2021/10/05 03:57:44;;;;;;;2.30;1.80;;;11.90;79.90;;;;;;5012674;28;20480;-78
2021/10/05 04:00:10;;;;;;;4.10;1.90;;;11.90;79.80;;;;;;5015860;28;20480;-77
2021/10/05 04:02:36;;;;;;;3.15;1.95;;;11.90;80.00;;;;;;5013486;28;20104;-77
2021/10/05 04:05:02;;;;;;;3.13;1.83;;;11.80;80.10;;;;;;5013741;28;20536;-78
2021/10/05 04:07:27;;;;;;;1.70;1.30;;;11.80;80.10;;;;;;5014076;28;20022;-78
2021/10/05 04:09:53;;;;;;;5.22;2.10;;;11.80;80.20;;;;;;5011497;28;20030;-76
2021/10/05 04:12:19;;;;;;;1.85;1.63;;;11.80;80.10;;;;;;5009017;28;20480;-78
2021/10/05 04:14:44;;;;;;;2.70;1.77;;;11.80;80.20;;;;;;5009205;28;20030;-79
2021/10/05 04:17:10;;;;;;;1.65;1.52;;;11.80;80.60;;;;;;5009587;28;20079;-77
2021/10/05 04:19:36;;;;;;;2.10;1.73;;;11.80;80.70;;;;;;5010490;28;20062;-78
2021/10/05 04:22:02;;;;;;;1.88;1.58;;;11.80;80.60;;;;;;5010979;28;20109;-78
2021/10/05 04:24:27;;;;;;;2.28;1.73;;;11.80;80.60;;;;;;5009598;28;20041;-78
2021/10/05 04:26:53;;;;;;;1.95;1.55;;;11.80;80.60;;;;;;5009819;28;20037;-78
2021/10/05 04:29:18;;;;;;;1.70;1.60;;;11.80;81.10;;;;;;5010720;28;20108;-77
2021/10/05 04:31:44;;;;;;;2.42;1.83;;;11.80;80.50;;;;;;5010557;28;20412;-77
2021/10/05 04:34:09;;;;;;;1.77;1.52;;;11.80;80.50;;;;;;5010045;28;20037;-77
2021/10/05 04:36:35;;;;;;;4.20;2.00;;;11.80;80.50;;;;;;5010189;28;20038;-77
2021/10/05 04:39:00;;;;;;;2.60;1.80;;;11.80;80.60;;;;;;5010451;28;20476;-77
2021/10/05 04:41:26;;;;;;;3.10;1.80;;;11.80;80.50;;;;;;5010413;28;20388;-78
2021/10/05 04:43:51;;;;;;;2.17;1.75;;;11.80;80.50;;;;;;5009996;28;20037;-78
2021/10/05 04:46:18;;;;;;;1.77;1.52;;;11.80;80.60;;;;;;5010382;28;20059;-78
2021/10/05 04:48:44;;;;;;;2.22;1.63;;;11.80;80.50;;;;;;5008649;28;20029;-78
2021/10/05 04:51:09;;;;;;;2.70;1.83;;;11.80;80.40;;;;;;5010560;28;20049;-78
2021/10/05 04:53:35;;;;;;;1.60;1.50;;;11.80;80.40;;;;;;5010135;28;20592;-77
2021/10/05 04:56:01;;;;;;;1.65;1.55;;;11.90;80.30;;;;;;5010317;28;20134;-78
2021/10/05 04:58:27;;;;;;;3.78;2.63;;;11.80;80.20;;;;;;5009580;28;20349;-78
2021/10/05 05:00:53;;;;;;;2.58;2.17;;;11.80;80.60;;;;;;5009432;28;20116;-78
2021/10/05 05:03:18;;;;;;;4.25;2.58;;;11.80;80.70;;;;;;5010043;28;20030;-78
2021/10/05 05:05:44;;;;;;;4.80;2.50;;;11.70;80.80;;;;;;5009429;28;20026;-78
2021/10/05 05:08:09;;;;;;;3.38;2.33;;;11.70;80.90;;;;;;5009725;28;20034;-79
2021/10/05 05:10:35;;;;;;;3.78;2.20;;;11.70;80.90;;;;;;5010359;28;20018;-79
2021/10/05 05:13:00;;;;;;;3.10;2.13;;;11.80;80.80;;;;;;5010146;28;20044;-79
2021/10/05 05:15:26;;;;;;;3.42;2.30;;;11.80;80.80;;;;;;5008513;28;20026;-79
2021/10/05 05:17:51;;;;;;;3.42;1.90;;;11.70;80.80;;;;;;5009687;28;20087;-78
2021/10/05 05:20:17;;;;;;;2.72;2.08;;;11.70;80.80;;;;;;5006125;28;20031;-78
2021/10/05 05:22:44;;;;;;;3.13;1.88;;;11.70;80.90;;;;;;5007807;28;20023;-78
2021/10/05 05:25:10;;;;;;;3.45;2.47;;;11.70;80.90;;;;;;4998717;28;20346;-78
2021/10/05 05:27:36;;;;;;;4.00;2.30;;;11.70;81.00;;;;;;5008396;28;20037;-78
2021/10/05 05:30:01;;;;;;;4.32;3.10;;;11.60;81.10;;;;;;5002935;28;20037;-78
2021/10/05 05:32:27;;;;;;;4.03;2.90;;;11.60;81.40;;;;;;5004007;28;20029;-78
2021/10/05 05:34:52;;;;;;;3.35;2.70;;;11.50;81.50;;;;;;5008940;28;20046;-79
2021/10/05 05:37:18;;;;;;;4.10;2.97;;;11.60;81.60;;;;;;5009183;28;20067;-79
2021/10/05 05:39:43;;;;;;;5.45;4.00;;;11.50;81.80;;;;;;5009412;28;20038;-78
2021/10/05 05:42:11;;;;;;;3.38;2.90;;;11.50;82.30;;;;;;5009465;28;20026;-78
2021/10/05 05:44:38;;;;;;;4.53;2.95;;;11.40;82.40;;;;;;5021159;28;20022;-78
2021/10/05 05:47:04;;;;;;;3.65;2.80;;;11.40;82.30;;;;;;5016399;28;20129;-78
2021/10/05 05:49:30;;;;;;;4.97;3.75;;;11.50;82.20;;;;;;5005186;28;20026;-79
2021/10/05 05:51:55;;;;;;;4.40;3.40;;;11.50;82.50;;;;;;5016195;28;20030;-78
2021/10/05 05:54:21;;;;;;;5.43;3.90;;;11.50;82.40;;;;;;5061509;28;20083;-80
2021/10/05 05:56:47;;;;;;;5.82;3.88;;;11.40;82.60;;;;;;5009257;28;20045;-80
2021/10/05 05:59:12;;;;;;;4.72;3.45;;;11.40;82.70;;;;;;5009584;28;20402;-80
2021/10/05 06:01:39;;;;;;;5.22;3.88;;;11.40;82.60;;;;;;5017579;28;20044;-80
2021/10/05 06:04:05;;;;;;;5.32;4.25;;;11.40;82.80;;;;;;5009214;28;20465;-81
2021/10/05 06:06:31;;;;;;;5.57;4.18;;;11.40;82.80;;;;;;5009011;28;20021;-81
2021/10/05 06:08:57;;;;;;;5.80;4.55;;;11.30;83.60;;;;;;5007223;28;20026;-80
2021/10/05 06:11:24;;;;;;;6.40;4.45;;;11.30;83.00;;;;;;5008848;28;20034;-80
2021/10/05 06:13:49;;;;;;;6.15;4.32;;;11.30;83.20;;;;;;5064312;28;20020;-81
2021/10/05 06:16:15;;;;;;;5.97;4.40;;;11.40;83.20;;;;;;5014458;28;20057;-79
2021/10/05 06:18:42;;;;;;;4.45;3.95;;;11.30;83.50;;;;;;5006046;28;20376;-80
2021/10/05 06:21:09;;;;;;;5.20;3.92;;;11.30;83.30;;;;;;5010071;28;20102;-80
2021/10/05 06:23:35;;;;;;;6.50;4.43;;;11.40;83.20;;;;;;5018847;28;20022;-81
2021/10/05 06:26:01;;;;;;;5.40;4.20;;;11.40;83.20;;;;;;5005530;28;20023;-81
2021/10/05 06:28:27;;;;;;;4.93;3.47;;;11.40;83.30;;;;;;5007608;28;20030;-81
2021/10/05 06:30:53;;;;;;;5.28;4.20;;;11.40;83.40;;;;;;5003682;28;20014;-81
2021/10/05 06:33:18;;;;;;;4.13;3.40;;;11.40;83.10;;;;;;5007722;28;20034;-82
2021/10/05 06:35:44;;;;;;;5.30;3.75;;;11.50;83.10;;;;;;5004354;28;20038;-79
2021/10/05 06:38:10;;;;;;;5.95;4.47;;;11.40;83.20;;;;;;5006063;28;20388;-81
2021/10/05 06:40:36;;;;;;;5.15;3.83;;;11.40;83.40;;;;;;5005379;28;20014;-80
2021/10/05 06:43:02;;;;;;;4.85;4.10;;;11.50;83.30;;;;;;5003326;28;20037;-79
2021/10/05 06:45:28;;;;;;;4.15;2.90;;;11.50;83.20;;;;;;5025081;28;20026;-78
2021/10/05 06:47:54;;;;;;;5.53;4.50;;;11.60;83.00;;;;;;5007101;28;20030;-78
2021/10/05 06:50:20;;;;;;;7.85;4.85;;;11.60;83.10;;;;;;5023923;28;20031;-78
2021/10/05 06:52:46;;;;;;;4.97;3.80;;;11.60;83.20;;;;;;5014185;28;20026;-78
2021/10/05 06:55:12;;;;;;;4.65;3.50;;;11.60;83.20;;;;;;5004758;28;20048;-77
2021/10/05 06:57:38;;;;;;;4.85;3.83;;;11.70;83.10;;;;;;5022618;28;20075;-80
2021/10/05 07:00:05;;;;;;;5.38;3.90;;;11.70;83.20;;;;;;5002976;28;20044;-79
2021/10/05 07:02:31;;;;;;;6.35;4.50;;;11.80;83.30;;;;;;5008567;28;20026;-78
2021/10/05 07:04:56;;;;;;;6.45;4.10;;;11.80;83.50;;;;;;5005000;28;20111;-78
2021/10/05 07:07:22;;;;;;;5.03;3.17;;;11.90;83.40;;;;;;5005101;28;20034;-76
2021/10/05 07:09:47;;;;;;;5.63;4.30;;;12.00;83.10;;;;;;5008048;28;20097;-77
2021/10/05 07:12:13;;;;;;;5.40;3.85;;;12.10;83.10;;;;;;5008856;28;20084;-78
2021/10/05 07:14:38;;;;;;;4.78;3.90;;;12.20;82.90;;;;;;5000384;28;20019;-83
2021/10/05 07:17:04;;;;;;;6.80;4.82;;;12.20;82.60;;;;;;4999155;28;20041;-81
2021/10/05 07:19:29;;;;;;;5.28;3.72;;;12.30;82.60;;;;;;5013412;28;20006;-77
2021/10/05 07:21:55;;;;;;;6.10;4.43;;;12.40;82.50;;;;;;5010273;28;20091;-77
2021/10/05 07:24:21;;;;;;;4.30;3.20;;;12.50;82.40;;;;;;5030683;28;20072;-78
2021/10/05 07:26:46;;;;;;;5.28;4.50;;;12.60;82.20;;;;;;5022760;28;20122;-78
2021/10/05 07:29:14;;;;;;;4.70;3.40;;;12.70;81.90;;;;;;5014987;28;20026;-77
2021/10/05 07:31:39;;;;;;;6.32;4.00;;;12.80;81.60;;;;;;5043966;28;20025;-77
2021/10/05 07:34:05;;;;;;;6.60;4.38;;;12.80;81.10;;;;;;4998095;28;20528;-79
2021/10/05 07:36:31;;;;;;;4.85;3.60;;;12.90;81.00;;;;;;5006899;28;20025;-78
2021/10/05 07:38:56;;;;;;;6.60;4.13;;;13.00;80.70;;;;;;5010775;28;20025;-76
2021/10/05 07:41:22;;;;;;;6.00;4.15;;;13.00;80.50;;;;;;4993695;28;20436;-76
2021/10/05 07:43:48;;;;;;;4.45;3.00;;;13.00;80.40;;;;;;4995138;28;20036;-77
2021/10/05 07:46:16;;;;;;;5.30;3.88;;;13.00;80.50;;;;;;4999738;28;20042;-76
2021/10/05 07:48:42;;;;;;;4.88;3.45;;;13.00;80.30;;;;;;4998949;28;20658;-75
2021/10/05 07:51:08;;;;;;;4.10;3.40;;;13.00;80.30;;;;;;4996129;28;20042;-76
2021/10/05 07:53:35;;;;;;;5.07;3.60;;;13.00;80.30;;;;;;5009055;28;20028;-76
2021/10/05 07:56:01;;;;;;;5.55;3.97;;;13.00;80.30;;;;;;5005252;28;20090;-77
2021/10/05 07:58:27;;;;;;;4.20;3.25;;;13.00;80.20;;;;;;5009410;28;20057;-76
2021/10/05 08:00:53;;;;;;;5.07;3.97;;;13.10;80.20;;;;;;5010723;28;20119;-76
2021/10/05 08:03:18;;;;;;;5.60;4.10;;;13.10;80.10;;;;;;5010618;28;20540;-77
2021/10/05 08:05:44;;;;;;;5.18;4.35;;;13.20;80.10;;;;;;5007541;28;20120;-78
2021/10/05 08:08:10;;;;;;;3.80;3.10;;;13.30;79.90;;;;;;5001328;28;20083;-78
2021/10/05 08:10:36;;;;;;;4.45;3.30;;;13.30;79.70;;;;;;5007561;28;20498;-77
2021/10/05 08:13:03;;;;;;;4.35;3.35;;;13.50;79.50;;;;;;5007215;28;20117;-79
2021/10/05 08:15:29;;;;;;;4.10;3.20;;;13.50;79.30;;;;;;5009541;28;20553;-77
2021/10/05 08:17:55;;;;;;;7.60;4.35;;;13.60;79.20;;;;;;4997935;28;20385;-76
2021/10/05 08:20:22;;;;;;;5.85;3.08;;;13.70;78.70;;;;;;5006270;28;20042;-77
2021/10/05 08:22:48;;;;;;;5.43;3.50;;;13.80;78.70;;;;;;5008526;28;20116;-77
2021/10/05 08:25:13;;;;;;;9.05;4.63;;;13.90;78.40;;;;;;5010124;28;20155;-80
2021/10/05 08:27:39;;;;;;;4.63;3.50;;;13.90;77.90;;;;;;5007306;28;20720;-79
2021/10/05 08:30:06;;;;;;;5.15;3.95;;;13.90;77.90;;;;;;5008543;28;20022;-77
2021/10/05 08:32:32;;;;;;;5.82;2.90;;;13.90;77.90;;;;;;5007187;28;20105;-76
2021/10/05 08:34:58;;;;;;;5.07;3.70;;;14.00;77.80;;;;;;5010502;28;20137;-76
2021/10/05 08:37:23;;;;;;;4.60;3.10;;;14.10;77.30;;;;;;5015147;28;20054;-78
2021/10/05 08:39:49;;;;;;;5.22;3.55;;;14.10;77.30;;;;;;5009959;28;20033;-77
2021/10/05 08:42:15;;;;;;;6.32;3.97;;;14.20;76.90;;;;;;5069382;28;20050;-78
2021/10/05 08:44:40;;;;;;;5.07;3.95;;;14.20;76.60;;;;;;5002021;28;20121;-77
2021/10/05 08:47:15;;;;;;;5.10;3.50;;;14.30;76.60;;;;;;5008487;28;20052;-76
2021/10/05 08:49:43;;;;;;;5.38;3.22;;;14.30;76.50;;;;;;5001387;28;20388;-76
2021/10/05 08:52:09;;;;;;;6.20;3.67;;;14.40;76.40;;;;;;5006326;28;20030;-80
2021/10/05 08:54:37;;;;;;;4.93;3.97;;;14.40;76.00;;;;;;5007166;28;20264;-80
2021/10/05 08:57:06;;;;;;;5.13;3.58;;;14.40;75.90;;;;;;5014797;28;20026;-79
2021/10/05 08:59:31;;;;;;;4.22;3.10;;;14.50;76.00;;;;;;5005330;28;20046;-78
2021/10/05 09:01:57;;;;;;;4.78;3.22;;;14.60;75.90;;;;;;5011038;28;20079;-78
2021/10/05 09:04:23;;;;;;;4.00;3.10;;;14.70;75.60;;;;;;5008695;28;20018;-79
2021/10/05 09:06:51;;;;;;;4.75;3.15;;;14.80;75.40;;;;;;5007616;28;20022;-79
2021/10/05 09:09:19;;;;;;;5.25;3.35;;;14.90;75.00;;;;;;5009640;28;20486;-80
2021/10/05 09:11:52;;;;;;;4.47;3.40;;;14.90;74.80;;;;;;5004881;28;20442;-78
2021/10/05 09:14:19;;;;;;;3.80;2.78;;;14.90;74.70;;;;;;5001758;28;20537;-80
2021/10/05 09:16:48;;;;;;;5.40;3.25;;;15.00;74.60;;;;;;5005556;28;20033;-79
2021/10/05 09:19:18;;;;;;;4.72;2.85;;;15.00;74.50;;;;;;5006346;28;20033;-78
2021/10/05 09:21:48;;;;;;;4.40;2.63;;;15.10;74.40;;;;;;5004727;28;20504;-83
2021/10/05 09:24:25;;;;;;;3.83;2.85;;;15.20;74.40;;;;;;5017372;28;20026;-78
2021/10/05 09:26:56;;;;;;;5.15;2.35;;;15.20;74.20;;;;;;4999841;28;20060;-78
2021/10/05 09:29:33;;;;;;;3.90;2.72;;;15.30;74.20;;;;;;5008565;28;20038;-79
2021/10/05 09:32:02;;;;;;;4.03;2.70;;;15.40;74.00;;;;;;5004534;28;20027;-79
2021/10/05 09:34:33;;;;;;;3.15;2.10;;;15.50;73.90;;;;;;4999576;28;20392;-78
2021/10/05 09:37:10;;;;;;;2.85;2.00;;;15.50;73.70;;;;;;5003591;28;20044;-79
2021/10/05 09:39:50;;;;;;;3.83;2.83;;;15.60;73.70;;;;;;5005592;28;20030;-77
2021/10/05 09:42:31;;;;;;;3.25;2.17;;;15.70;73.00;;;;;;5020276;28;20087;-78
2021/10/05 09:45:00;;;;;;;4.35;2.33;;;15.80;73.10;;;;;;5006062;28;20112;-78
2021/10/05 09:47:52;;;;;;;4.03;2.40;;;15.80;72.90;;;;;;5005560;28;20033;-79
2021/10/05 09:50:32;;;;;;;4.40;2.20;;;15.90;72.50;;;;;;5010323;27;20029;-78
2021/10/05 09:53:01;;;;;;;4.72;2.47;;;15.90;73.00;;;;;;5005212;28;20074;-78
2021/10/05 09:55:29;;;;;;;2.75;2.00;;;15.90;72.10;;;;;;5002797;28;20103;-78
2021/10/05 09:57:56;;;;;;;3.97;2.30;;;16.00;72.20;;;;;;5004828;28;20038;-80
2021/10/05 10:00:26;;;;;;;3.55;1.77;;;16.10;72.10;;;;;;5005882;28;20041;-80
2021/10/05 10:02:52;;;;;;;2.10;1.65;;;16.20;71.90;;;;;;5005497;28;20067;-81
2021/10/05 10:05:23;;;;;;;3.22;1.80;;;16.30;71.90;;;;;;5025727;28;20049;-80
2021/10/05 10:07:52;;;;;;;2.90;1.70;;;16.30;71.50;;;;;;5004979;28;20030;-79
2021/10/05 10:10:21;;;;;;;3.40;1.92;;;16.30;71.00;;;;;;5004566;28;20054;-79
2021/10/05 10:13:00;;;;;;;2.80;1.50;;;16.40;70.90;;;;;;5005066;28;20423;-78
2021/10/05 10:15:34;;;;;;;3.70;1.67;;;16.50;71.00;;;;;;5006197;28;20087;-80
2021/10/05 10:18:12;;;;;;;3.63;1.73;;;16.60;70.50;;;;;;5003343;28;20138;-79
2021/10/05 10:20:40;;;;;;;3.47;1.88;;;16.60;70.30;;;;;;5002132;28;20064;-79
2021/10/05 10:23:24;;;;;;;2.28;1.60;;;16.70;70.20;;;;;;5004854;28;20026;-79
2021/10/05 10:26:02;;;;;;;3.05;1.60;;;16.70;70.10;;;;;;5005514;28;20026;-80
2021/10/05 10:28:35;;;;;;;2.22;1.48;;;16.80;70.10;;;;;;4998941;28;20037;-78
2021/10/05 10:31:05;;;;;;;4.18;1.80;;;16.80;69.90;;;;;;5007928;28;20029;-79
2021/10/05 10:33:53;;;;;;;2.70;1.80;;;16.90;69.60;;;;;;5006521;28;20150;-80
2021/10/05 10:36:39;;;;;;;3.15;1.70;;;16.90;69.10;;;;;;5004398;28;20038;-80
2021/10/05 10:39:07;;;;;;;3.22;1.80;;;17.00;69.40;;;;;;5003649;28;20492;-79
2021/10/05 10:41:33;;;;;;;3.20;1.73;;;17.20;69.40;;;;;;4998684;28;20387;-81
2021/10/05 10:44:02;;;;;;;2.63;1.67;;;17.20;69.00;;;;;;5008870;28;20026;-80
2021/10/05 10:46:31;;;;;;;3.90;1.48;;;17.30;68.30;;;;;;5004688;28;20026;-80
2021/10/05 10:48:58;;;;;;;2.55;1.90;;;17.40;67.70;;;;;;5005362;28;20037;-80
2021/10/05 10:51:27;;;;;;;4.00;1.80;;;17.30;67.60;;;;;;5004871;28;20120;-78
2021/10/05 10:53:57;;;;;;;3.95;1.70;;;17.30;67.00;;;;;;5000779;28;20037;-78
2021/10/05 10:56:34;;;;;;;3.20;1.73;;;17.30;67.50;;;;;;5006787;28;20030;-79
2021/10/05 10:59:12;;;;;;;4.22;1.83;;;17.20;67.20;;;;;;5004262;28;20388;-79
2021/10/05 11:01:45;;;;;;;2.55;1.48;;;17.30;67.20;;;;;;5002575;28;20050;-80
2021/10/05 11:04:11;;;;;;;2.00;1.38;;;17.40;67.30;;;;;;5004090;28;20045;-79
2021/10/05 11:06:38;;;;;;;2.70;1.50;;;17.60;67.20;;;;;;5000732;28;20022;-79
2021/10/05 11:09:05;;;;;;;2.92;1.85;;;17.70;66.80;;;;;;5001345;28;20221;-79
2021/10/05 11:11:49;;;;;;;2.13;1.52;;;17.80;66.10;;;;;;5005361;28;20487;-79
2021/10/05 11:14:24;;;;;;;4.18;1.92;;;17.60;65.90;;;;;;5006712;28;20034;-81
2021/10/05 11:16:58;;;;;;;3.05;1.40;;;17.60;66.30;;;;;;5001221;28;20113;-80
2021/10/05 11:19:35;;;;;;;2.58;1.48;;;17.50;66.80;;;;;;5004193;28;20026;-78
2021/10/05 11:22:03;;;;;;;3.38;1.52;;;17.40;67.00;;;;;;5006471;28;20022;-79
2021/10/05 11:24:40;;;;;;;5.10;3.72;;;17.40;67.10;;;;;;5005055;28;20028;-81
2021/10/05 11:27:18;;;;;;;2.53;1.77;;;17.40;67.30;;;;;;5018853;28;20033;-80
2021/10/05 11:29:45;;;;;;;1.67;1.40;;;17.40;67.50;;;;;;5016281;28;20166;-79
2021/10/05 11:32:15;;;;;;;3.58;1.30;;;17.40;67.60;;;;;;5028618;28;20062;-78
2021/10/05 11:34:43;;;;;;;2.85;1.33;;;17.50;67.70;;;;;;5008537;28;20026;-79
2021/10/05 11:37:12;;;;;;;4.75;2.75;;;17.60;67.70;;;;;;5005906;28;20033;-79
2021/10/05 11:39:39;;;;;;;2.20;1.63;;;17.60;67.50;;;;;;5010593;28;20426;-81
2021/10/05 11:42:10;;;;;;;3.00;1.80;;;17.60;67.10;;;;;;5009339;28;20166;-78
2021/10/05 11:44:43;;;;;;;2.20;1.60;;;17.70;67.00;;;;;;5008991;28;20037;-78
2021/10/05 11:47:14;;;;;;;2.92;2.00;;;17.60;66.50;;;;;;5006737;28;20022;-78
2021/10/05 11:49:43;;;;;;;3.28;1.95;;;17.60;67.20;;;;;;5034978;28;20472;-79
2021/10/05 11:52:18;;;;;;;3.13;1.55;;;17.70;66.40;;;;;;5002877;28;20114;-79
2021/10/05 11:54:45;;;;;;;2.22;1.35;;;17.70;66.30;;;;;;5008907;28;20043;-81
2021/10/05 11:57:15;;;;;;;2.85;1.20;;;17.70;66.50;;;;;;5016882;28;20471;-77
2021/10/05 11:59:43;;;;;;;2.58;1.33;;;17.70;66.40;;;;;;5003756;28;20035;-78
2021/10/05 12:02:11;;;;;;;1.67;1.08;;;17.70;66.10;;;;;;5017968;28;20541;-77
2021/10/05 12:04:38;;;;;;;1.80;1.20;;;17.70;66.30;;;;;;5004392;28;20029;-79
2021/10/05 12:07:05;;;;;;;2.15;1.20;;;17.70;66.30;;;;;;5014010;28;20042;-77
2021/10/05 12:09:32;;;;;;;2.63;1.48;;;17.80;66.20;;;;;;5012531;28;20623;-78
2021/10/05 12:12:06;;;;;;;4.05;1.40;;;17.80;66.30;;;;;;5016588;28;20038;-78
2021/10/05 12:14:36;;;;;;;2.97;1.27;;;17.80;66.10;;;;;;5004930;28;20045;-78
2021/10/05 12:17:05;;;;;;;3.25;1.38;;;17.80;66.10;;;;;;5007146;28;20084;-78
2021/10/05 12:19:37;;;;;;;3.58;1.20;;;17.90;66.10;;;;;;5010807;28;20061;-77
2021/10/05 12:22:05;;;;;;;4.40;1.40;;;17.80;66.20;;;;;;5005213;28;20100;-77
2021/10/05 12:24:40;;;;;;;1.63;1.15;;;17.80;66.10;;;;;;5012212;28;20040;-79
2021/10/05 12:27:06;;;;;;;3.88;1.98;;;17.70;66.30;;;;;;5021307;28;20062;-79
2021/10/05 12:29:32;;;;;;;4.78;1.30;;;17.70;66.10;;;;;;5016317;28;20057;-79
2021/10/05 12:31:59;;;;;;;4.65;1.50;;;17.70;66.40;;;;;;5009412;28;20447;-78
2021/10/05 12:34:36;;;;;;;3.25;1.27;;;17.70;66.30;;;;;;5014037;28;20476;-78
2021/10/05 12:37:05;;;;;;;3.30;1.23;;;17.60;66.30;;;;;;5003222;28;20028;-78
2021/10/05 12:39:30;;;;;;;5.18;1.73;;;17.60;66.50;;;;;;5004654;28;20106;-80
2021/10/05 12:41:58;;;;;;;2.80;1.38;;;17.60;66.70;;;;;;5005708;28;20392;-78
2021/10/05 12:44:24;;;;;;;2.38;1.30;;;17.70;67.00;;;;;;5000223;28;20431;-79
2021/10/05 12:47:01;;;;;;;2.47;1.10;;;17.70;67.10;;;;;;5007023;28;20026;-78
2021/10/05 12:49:27;;;;;;;1.60;1.13;;;17.70;67.10;;;;;;5018389;28;20026;-79